sensor_id;sensor_type;location;lat;lon;timestamp;P1;durP1;ratioP1;P2;durP2;ratioP2
46899;SDS011;32647;49.382;7.078;2022-12-01T00:00:45;29.42;;;17.60;;
46899;SDS011;32647;49.382;7.078;2022-12-01T00:03:32;28.95;;;17.13;;
46899;SDS011;32647;49.382;7.078;2022-12-01T00:06:19;30.67;;;17.65;;
46899;SDS011;32647;49.382;7.078;2022-12-01T00:09:05;30.10;;;16.77;;
46899;SDS011;32647;49.382;7.078;2022-12-01T00:12:12;25.48;;;15.82;;
46899;SDS011;32647;49.382;7.078;2022-12-01T00:14:58;27.08;;;16.50;;
46899;SDS011;32647;49.382;7.078;2022-12-01T00:17:45;28.88;;;16.48;;
46899;SDS011;32647;49.382;7.078;2022-12-01T00:20:33;32.78;;;18.40;;
46899;SDS011;32647;49.382;7.078;2022-12-01T00:23:20;28.08;;;16.20;;
46899;SDS011;32647;49.382;7.078;2022-12-01T00:26:06;31.95;;;17.05;;
46899;SDS011;32647;49.382;7.078;2022-12-01T00:28:53;32.65;;;16.58;;
46899;SDS011;32647;49.382;7.078;2022-12-01T00:31:41;27.58;;;15.63;;
46899;SDS011;32647;49.382;7.078;2022-12-01T00:34:27;29.65;;;15.73;;
46899;SDS011;32647;49.382;7.078;2022-12-01T00:37:13;27.63;;;15.25;;
46899;SDS011;32647;49.382;7.078;2022-12-01T00:39:59;25.05;;;14.68;;
46899;SDS011;32647;49.382;7.078;2022-12-01T00:42:46;23.02;;;13.88;;
46899;SDS011;32647;49.382;7.078;2022-12-01T00:45:33;22.40;;;13.60;;
46899;SDS011;32647;49.382;7.078;2022-12-01T00:48:19;24.95;;;13.50;;
46899;SDS011;32647;49.382;7.078;2022-12-01T00:51:05;19.55;;;12.20;;
46899;SDS011;32647;49.382;7.078;2022-12-01T00:53:51;25.58;;;14.10;;
46899;SDS011;32647;49.382;7.078;2022-12-01T00:56:37;22.52;;;13.30;;
46899;SDS011;32647;49.382;7.078;2022-12-01T00:59:23;19.20;;;12.43;;
46899;SDS011;32647;49.382;7.078;2022-12-01T01:02:09;23.67;;;13.75;;
46899;SDS011;32647;49.382;7.078;2022-12-01T01:04:55;25.80;;;16.05;;
46899;SDS011;32647;49.382;7.078;2022-12-01T01:07:41;25.77;;;15.32;;
46899;SDS011;32647;49.382;7.078;2022-12-01T01:10:27;29.77;;;15.38;;
46899;SDS011;32647;49.382;7.078;2022-12-01T01:13:14;31.05;;;15.70;;
46899;SDS011;32647;49.382;7.078;2022-12-01T01:16:11;26.55;;;15.77;;
46899;SDS011;32647;49.382;7.078;2022-12-01T01:19:00;24.85;;;14.32;;
46899;SDS011;32647;49.382;7.078;2022-12-01T01:21:46;36.88;;;16.58;;
46899;SDS011;32647;49.382;7.078;2022-12-01T01:24:32;34.72;;;16.88;;
46899;SDS011;32647;49.382;7.078;2022-12-01T01:27:18;25.85;;;15.35;;
46899;SDS011;32647;49.382;7.078;2022-12-01T01:30:05;24.02;;;14.20;;
46899;SDS011;32647;49.382;7.078;2022-12-01T01:32:51;23.83;;;14.13;;
46899;SDS011;32647;49.382;7.078;2022-12-01T01:35:37;23.67;;;13.57;;
46899;SDS011;32647;49.382;7.078;2022-12-01T01:38:23;26.15;;;14.57;;
46899;SDS011;32647;49.382;7.078;2022-12-01T01:41:09;33.53;;;13.80;;
46899;SDS011;32647;49.382;7.078;2022-12-01T01:43:57;25.02;;;14.07;;
46899;SDS011;32647;49.382;7.078;2022-12-01T01:46:44;18.02;;;11.10;;
46899;SDS011;32647;49.382;7.078;2022-12-01T01:49:30;20.40;;;12.05;;
46899;SDS011;32647;49.382;7.078;2022-12-01T01:52:16;19.50;;;11.60;;
46899;SDS011;32647;49.382;7.078;2022-12-01T01:55:03;20.73;;;11.18;;
46899;SDS011;32647;49.382;7.078;2022-12-01T01:57:49;17.40;;;11.52;;
46899;SDS011;32647;49.382;7.078;2022-12-01T02:00:36;17.83;;;10.65;;
46899;SDS011;32647;49.382;7.078;2022-12-01T02:03:25;18.42;;;10.23;;
46899;SDS011;32647;49.382;7.078;2022-12-01T02:06:13;16.67;;;10.07;;
46899;SDS011;32647;49.382;7.078;2022-12-01T02:08:59;18.85;;;10.68;;
46899;SDS011;32647;49.382;7.078;2022-12-01T02:17:55;17.55;;;10.48;;
46899;SDS011;32647;49.382;7.078;2022-12-01T02:21:10;16.90;;;9.93;;
46899;SDS011;32647;49.382;7.078;2022-12-01T02:30:42;17.55;;;9.50;;
46899;SDS011;32647;49.382;7.078;2022-12-01T02:36:20;18.92;;;9.77;;
46899;SDS011;32647;49.382;7.078;2022-12-01T02:39:25;17.45;;;9.73;;
46899;SDS011;32647;49.382;7.078;2022-12-01T02:42:19;18.25;;;11.30;;
46899;SDS011;32647;49.382;7.078;2022-12-01T02:45:40;19.95;;;10.77;;
46899;SDS011;32647;49.382;7.078;2022-12-01T02:48:36;21.67;;;9.77;;
46899;SDS011;32647;49.382;7.078;2022-12-01T02:51:26;33.75;;;16.13;;
46899;SDS011;32647;49.382;7.078;2022-12-01T02:54:14;47.53;;;19.17;;
46899;SDS011;32647;49.382;7.078;2022-12-01T02:57:02;35.30;;;17.70;;
46899;SDS011;32647;49.382;7.078;2022-12-01T02:59:49;43.95;;;19.58;;
46899;SDS011;32647;49.382;7.078;2022-12-01T03:02:44;46.83;;;20.10;;
46899;SDS011;32647;49.382;7.078;2022-12-01T03:12:05;49.33;;;20.50;;
46899;SDS011;32647;49.382;7.078;2022-12-01T03:15:07;52.22;;;20.38;;
46899;SDS011;32647;49.382;7.078;2022-12-01T03:24:16;47.40;;;21.05;;
46899;SDS011;32647;49.382;7.078;2022-12-01T03:27:04;46.08;;;21.50;;
46899;SDS011;32647;49.382;7.078;2022-12-01T03:29:52;49.63;;;22.50;;
46899;SDS011;32647;49.382;7.078;2022-12-01T03:32:47;66.20;;;25.00;;
46899;SDS011;32647;49.382;7.078;2022-12-01T03:35:38;50.05;;;22.70;;
46899;SDS011;32647;49.382;7.078;2022-12-01T03:38:29;48.08;;;22.55;;
46899;SDS011;32647;49.382;7.078;2022-12-01T03:41:20;59.30;;;24.15;;
46899;SDS011;32647;49.382;7.078;2022-12-01T03:44:13;58.55;;;23.48;;
46899;SDS011;32647;49.382;7.078;2022-12-01T03:47:07;60.50;;;23.00;;
46899;SDS011;32647;49.382;7.078;2022-12-01T03:50:00;55.40;;;23.38;;
46899;SDS011;32647;49.382;7.078;2022-12-01T03:55:51;55.50;;;22.95;;
46899;SDS011;32647;49.382;7.078;2022-12-01T03:58:46;55.58;;;21.73;;
46899;SDS011;32647;49.382;7.078;2022-12-01T04:01:35;48.20;;;21.05;;
46899;SDS011;32647;49.382;7.078;2022-12-01T04:04:21;44.60;;;20.70;;
46899;SDS011;32647;49.382;7.078;2022-12-01T04:07:07;41.35;;;20.42;;
46899;SDS011;32647;49.382;7.078;2022-12-01T04:09:57;59.83;;;22.05;;
46899;SDS011;32647;49.382;7.078;2022-12-01T04:12:43;52.92;;;21.20;;
46899;SDS011;32647;49.382;7.078;2022-12-01T04:15:29;48.92;;;21.35;;
46899;SDS011;32647;49.382;7.078;2022-12-01T04:18:24;53.15;;;22.02;;
46899;SDS011;32647;49.382;7.078;2022-12-01T04:21:10;71.80;;;23.40;;
46899;SDS011;32647;49.382;7.078;2022-12-01T04:23:56;47.88;;;20.95;;
46899;SDS011;32647;49.382;7.078;2022-12-01T04:26:45;50.28;;;20.52;;
46899;SDS011;32647;49.382;7.078;2022-12-01T04:29:31;54.70;;;22.42;;
46899;SDS011;32647;49.382;7.078;2022-12-01T04:32:17;64.78;;;22.33;;
46899;SDS011;32647;49.382;7.078;2022-12-01T04:35:03;46.60;;;20.88;;
46899;SDS011;32647;49.382;7.078;2022-12-01T04:37:50;46.20;;;20.42;;
46899;SDS011;32647;49.382;7.078;2022-12-01T04:40:37;43.25;;;18.77;;
46899;SDS011;32647;49.382;7.078;2022-12-01T04:43:23;41.85;;;19.08;;
46899;SDS011;32647;49.382;7.078;2022-12-01T04:46:09;47.13;;;19.95;;
46899;SDS011;32647;49.382;7.078;2022-12-01T04:48:55;45.85;;;20.05;;
46899;SDS011;32647;49.382;7.078;2022-12-01T04:51:41;48.38;;;20.85;;
46899;SDS011;32647;49.382;7.078;2022-12-01T04:54:27;38.83;;;18.10;;
46899;SDS011;32647;49.382;7.078;2022-12-01T04:57:14;56.72;;;21.52;;
46899;SDS011;32647;49.382;7.078;2022-12-01T05:00:00;53.03;;;21.80;;
46899;SDS011;32647;49.382;7.078;2022-12-01T05:02:46;42.75;;;19.70;;
46899;SDS011;32647;49.382;7.078;2022-12-01T05:05:32;51.53;;;20.60;;
46899;SDS011;32647;49.382;7.078;2022-12-01T05:08:18;48.40;;;19.85;;
46899;SDS011;32647;49.382;7.078;2022-12-01T05:11:05;38.60;;;19.33;;
46899;SDS011;32647;49.382;7.078;2022-12-01T05:13:52;41.72;;;19.75;;
46899;SDS011;32647;49.382;7.078;2022-12-01T05:16:38;52.33;;;21.02;;
46899;SDS011;32647;49.382;7.078;2022-12-01T05:19:24;51.92;;;19.48;;
46899;SDS011;32647;49.382;7.078;2022-12-01T05:22:29;38.88;;;18.13;;
46899;SDS011;32647;49.382;7.078;2022-12-01T05:25:15;57.25;;;20.08;;
46899;SDS011;32647;49.382;7.078;2022-12-01T05:28:01;62.72;;;21.35;;
46899;SDS011;32647;49.382;7.078;2022-12-01T05:30:48;53.85;;;19.42;;
46899;SDS011;32647;49.382;7.078;2022-12-01T05:33:34;40.60;;;18.13;;
46899;SDS011;32647;49.382;7.078;2022-12-01T05:36:20;36.30;;;18.30;;
46899;SDS011;32647;49.382;7.078;2022-12-01T05:39:06;56.47;;;21.10;;
46899;SDS011;32647;49.382;7.078;2022-12-01T05:41:52;39.83;;;17.20;;
46899;SDS011;32647;49.382;7.078;2022-12-01T05:44:38;37.50;;;15.90;;
46899;SDS011;32647;49.382;7.078;2022-12-01T05:47:26;22.70;;;13.13;;
46899;SDS011;32647;49.382;7.078;2022-12-01T05:50:12;29.25;;;14.75;;
46899;SDS011;32647;49.382;7.078;2022-12-01T05:52:58;28.42;;;14.20;;
46899;SDS011;32647;49.382;7.078;2022-12-01T05:55:44;31.75;;;15.43;;
46899;SDS011;32647;49.382;7.078;2022-12-01T05:58:30;35.92;;;16.52;;
46899;SDS011;32647;49.382;7.078;2022-12-01T06:01:16;28.23;;;15.02;;
46899;SDS011;32647;49.382;7.078;2022-12-01T06:04:02;30.58;;;16.10;;
46899;SDS011;32647;49.382;7.078;2022-12-01T06:06:49;26.83;;;13.25;;
46899;SDS011;32647;49.382;7.078;2022-12-01T06:09:35;22.58;;;11.95;;
46899;SDS011;32647;49.382;7.078;2022-12-01T06:12:21;20.00;;;11.10;;
46899;SDS011;32647;49.382;7.078;2022-12-01T06:15:07;17.55;;;9.15;;
46899;SDS011;32647;49.382;7.078;2022-12-01T06:17:57;19.00;;;10.00;;
46899;SDS011;32647;49.382;7.078;2022-12-01T06:20:43;17.35;;;9.35;;
46899;SDS011;32647;49.382;7.078;2022-12-01T06:23:29;13.02;;;8.57;;
46899;SDS011;32647;49.382;7.078;2022-12-01T06:26:15;14.63;;;9.23;;
46899;SDS011;32647;49.382;7.078;2022-12-01T06:29:01;17.85;;;10.00;;
46899;SDS011;32647;49.382;7.078;2022-12-01T06:31:47;14.27;;;9.00;;
46899;SDS011;32647;49.382;7.078;2022-12-01T06:34:33;18.38;;;10.48;;
46899;SDS011;32647;49.382;7.078;2022-12-01T06:37:19;15.82;;;9.55;;
46899;SDS011;32647;49.382;7.078;2022-12-01T06:40:05;15.95;;;10.23;;
46899;SDS011;32647;49.382;7.078;2022-12-01T06:42:53;17.42;;;10.30;;
46899;SDS011;32647;49.382;7.078;2022-12-01T06:45:39;14.30;;;9.02;;
46899;SDS011;32647;49.382;7.078;2022-12-01T06:48:25;20.67;;;11.20;;
46899;SDS011;32647;49.382;7.078;2022-12-01T06:51:11;16.83;;;10.95;;
46899;SDS011;32647;49.382;7.078;2022-12-01T06:53:57;15.43;;;10.43;;
46899;SDS011;32647;49.382;7.078;2022-12-01T06:56:43;19.60;;;11.75;;
46899;SDS011;32647;49.382;7.078;2022-12-01T06:59:30;22.45;;;12.57;;
46899;SDS011;32647;49.382;7.078;2022-12-01T07:02:16;19.48;;;11.82;;
46899;SDS011;32647;49.382;7.078;2022-12-01T07:05:02;30.58;;;15.15;;
46899;SDS011;32647;49.382;7.078;2022-12-01T07:07:48;24.05;;;13.18;;
46899;SDS011;32647;49.382;7.078;2022-12-01T07:10:34;20.33;;;12.35;;
46899;SDS011;32647;49.382;7.078;2022-12-01T07:13:20;17.95;;;12.73;;
46899;SDS011;32647;49.382;7.078;2022-12-01T07:16:06;17.48;;;11.95;;
46899;SDS011;32647;49.382;7.078;2022-12-01T07:18:53;17.98;;;12.10;;
46899;SDS011;32647;49.382;7.078;2022-12-01T07:21:39;18.55;;;12.27;;
46899;SDS011;32647;49.382;7.078;2022-12-01T07:24:25;23.77;;;13.93;;
46899;SDS011;32647;49.382;7.078;2022-12-01T07:27:11;20.67;;;12.75;;
46899;SDS011;32647;49.382;7.078;2022-12-01T07:29:57;18.20;;;11.88;;
46899;SDS011;32647;49.382;7.078;2022-12-01T07:32:43;22.38;;;13.48;;
46899;SDS011;32647;49.382;7.078;2022-12-01T07:35:28;18.08;;;12.25;;
46899;SDS011;32647;49.382;7.078;2022-12-01T07:38:14;20.50;;;13.10;;
46899;SDS011;32647;49.382;7.078;2022-12-01T07:41:01;24.13;;;14.10;;
46899;SDS011;32647;49.382;7.078;2022-12-01T07:43:48;24.08;;;14.13;;
46899;SDS011;32647;49.382;7.078;2022-12-01T07:46:35;21.83;;;13.18;;
46899;SDS011;32647;49.382;7.078;2022-12-01T07:49:21;24.92;;;14.75;;
46899;SDS011;32647;49.382;7.078;2022-12-01T07:52:07;21.05;;;13.65;;
46899;SDS011;32647;49.382;7.078;2022-12-01T07:54:53;23.58;;;13.82;;
46899;SDS011;32647;49.382;7.078;2022-12-01T07:57:39;27.55;;;14.98;;
46899;SDS011;32647;49.382;7.078;2022-12-01T08:00:25;24.10;;;13.82;;
46899;SDS011;32647;49.382;7.078;2022-12-01T08:03:11;39.22;;;19.98;;
46899;SDS011;32647;49.382;7.078;2022-12-01T08:05:58;25.70;;;15.15;;
46899;SDS011;32647;49.382;7.078;2022-12-01T08:08:45;31.70;;;16.77;;
46899;SDS011;32647;49.382;7.078;2022-12-01T08:11:31;38.42;;;19.27;;
46899;SDS011;32647;49.382;7.078;2022-12-01T08:14:17;35.53;;;18.52;;
46899;SDS011;32647;49.382;7.078;2022-12-01T08:17:03;37.17;;;18.65;;
46899;SDS011;32647;49.382;7.078;2022-12-01T08:19:49;44.55;;;20.13;;
46899;SDS011;32647;49.382;7.078;2022-12-01T08:22:35;51.92;;;22.02;;
46899;SDS011;32647;49.382;7.078;2022-12-01T08:25:21;44.33;;;20.92;;
46899;SDS011;32647;49.382;7.078;2022-12-01T08:28:07;39.85;;;18.85;;
46899;SDS011;32647;49.382;7.078;2022-12-01T08:30:53;42.67;;;19.77;;
46899;SDS011;32647;49.382;7.078;2022-12-01T08:33:39;30.42;;;15.32;;
46899;SDS011;32647;49.382;7.078;2022-12-01T08:36:25;31.42;;;15.90;;
46899;SDS011;32647;49.382;7.078;2022-12-01T08:39:11;34.72;;;16.10;;
46899;SDS011;32647;49.382;7.078;2022-12-01T08:41:58;22.58;;;13.52;;
46899;SDS011;32647;49.382;7.078;2022-12-01T08:44:44;28.35;;;15.57;;
46899;SDS011;32647;49.382;7.078;2022-12-01T08:47:30;29.92;;;13.65;;
46899;SDS011;32647;49.382;7.078;2022-12-01T08:50:16;28.08;;;13.55;;
46899;SDS011;32647;49.382;7.078;2022-12-01T08:53:02;22.50;;;13.23;;
46899;SDS011;32647;49.382;7.078;2022-12-01T08:55:48;28.55;;;13.38;;
46899;SDS011;32647;49.382;7.078;2022-12-01T08:58:33;30.85;;;15.27;;
46899;SDS011;32647;49.382;7.078;2022-12-01T09:01:20;29.83;;;15.23;;
46899;SDS011;32647;49.382;7.078;2022-12-01T09:04:06;31.20;;;15.75;;
46899;SDS011;32647;49.382;7.078;2022-12-01T09:06:54;31.33;;;15.20;;
46899;SDS011;32647;49.382;7.078;2022-12-01T09:09:42;25.63;;;13.93;;
46899;SDS011;32647;49.382;7.078;2022-12-01T09:12:29;29.45;;;13.90;;
46899;SDS011;32647;49.382;7.078;2022-12-01T09:15:15;27.63;;;14.07;;
46899;SDS011;32647;49.382;7.078;2022-12-01T09:18:01;26.90;;;14.15;;
46899;SDS011;32647;49.382;7.078;2022-12-01T09:20:47;24.00;;;13.07;;
46899;SDS011;32647;49.382;7.078;2022-12-01T09:23:33;30.20;;;14.85;;
46899;SDS011;32647;49.382;7.078;2022-12-01T09:26:20;32.13;;;14.52;;
46899;SDS011;32647;49.382;7.078;2022-12-01T09:29:08;20.90;;;12.50;;
46899;SDS011;32647;49.382;7.078;2022-12-01T09:31:57;30.00;;;14.00;;
46899;SDS011;32647;49.382;7.078;2022-12-01T09:34:44;27.10;;;14.05;;
46899;SDS011;32647;49.382;7.078;2022-12-01T09:37:30;32.00;;;15.48;;
46899;SDS011;32647;49.382;7.078;2022-12-01T09:40:16;28.98;;;16.42;;
46899;SDS011;32647;49.382;7.078;2022-12-01T09:43:04;31.75;;;17.13;;
46899;SDS011;32647;49.382;7.078;2022-12-01T09:46:01;34.05;;;16.95;;
46899;SDS011;32647;49.382;7.078;2022-12-01T09:48:51;31.35;;;15.65;;
46899;SDS011;32647;49.382;7.078;2022-12-01T09:51:39;34.78;;;16.75;;
46899;SDS011;32647;49.382;7.078;2022-12-01T09:54:25;35.42;;;16.63;;
46899;SDS011;32647;49.382;7.078;2022-12-01T09:57:35;38.88;;;16.88;;
46899;SDS011;32647;49.382;7.078;2022-12-01T10:00:22;30.08;;;16.50;;
46899;SDS011;32647;49.382;7.078;2022-12-01T10:06:20;35.08;;;17.92;;
46899;SDS011;32647;49.382;7.078;2022-12-01T10:30:30;42.50;;;21.85;;
46899;SDS011;32647;49.382;7.078;2022-12-01T10:33:24;44.78;;;22.10;;
46899;SDS011;32647;49.382;7.078;2022-12-01T10:36:16;41.67;;;22.52;;
46899;SDS011;32647;49.382;7.078;2022-12-01T10:39:02;41.13;;;22.25;;
46899;SDS011;32647;49.382;7.078;2022-12-01T10:41:51;49.90;;;25.10;;
46899;SDS011;32647;49.382;7.078;2022-12-01T10:44:37;48.42;;;24.30;;
46899;SDS011;32647;49.382;7.078;2022-12-01T10:47:24;44.97;;;22.33;;
46899;SDS011;32647;49.382;7.078;2022-12-01T10:50:17;49.88;;;24.73;;
46899;SDS011;32647;49.382;7.078;2022-12-01T10:53:26;48.53;;;24.25;;
46899;SDS011;32647;49.382;7.078;2022-12-01T10:56:18;42.30;;;23.35;;
46899;SDS011;32647;49.382;7.078;2022-12-01T10:59:16;50.03;;;25.98;;
46899;SDS011;32647;49.382;7.078;2022-12-01T11:02:15;50.85;;;25.90;;
46899;SDS011;32647;49.382;7.078;2022-12-01T11:05:17;66.93;;;28.52;;
46899;SDS011;32647;49.382;7.078;2022-12-01T11:08:32;51.75;;;26.20;;
46899;SDS011;32647;49.382;7.078;2022-12-01T11:14:18;50.47;;;25.48;;
46899;SDS011;32647;49.382;7.078;2022-12-01T11:20:24;66.53;;;29.20;;
46899;SDS011;32647;49.382;7.078;2022-12-01T11:23:24;55.40;;;28.15;;
46899;SDS011;32647;49.382;7.078;2022-12-01T11:29:23;57.15;;;26.55;;
46899;SDS011;32647;49.382;7.078;2022-12-01T11:32:21;53.70;;;25.75;;
46899;SDS011;32647;49.382;7.078;2022-12-01T11:35:15;50.25;;;25.75;;
46899;SDS011;32647;49.382;7.078;2022-12-01T11:38:04;54.50;;;26.63;;
46899;SDS011;32647;49.382;7.078;2022-12-01T11:40:52;55.92;;;26.90;;
46899;SDS011;32647;49.382;7.078;2022-12-01T11:43:40;63.88;;;28.95;;
46899;SDS011;32647;49.382;7.078;2022-12-01T11:46:27;47.55;;;25.15;;
46899;SDS011;32647;49.382;7.078;2022-12-01T11:49:18;66.53;;;28.50;;
46899;SDS011;32647;49.382;7.078;2022-12-01T11:52:23;58.45;;;27.02;;
46899;SDS011;32647;49.382;7.078;2022-12-01T11:55:21;54.08;;;27.15;;
46899;SDS011;32647;49.382;7.078;2022-12-01T11:58:09;57.83;;;26.33;;
46899;SDS011;32647;49.382;7.078;2022-12-01T12:00:55;59.90;;;29.42;;
46899;SDS011;32647;49.382;7.078;2022-12-01T12:03:57;60.13;;;28.55;;
46899;SDS011;32647;49.382;7.078;2022-12-01T12:06:55;59.03;;;28.80;;
46899;SDS011;32647;49.382;7.078;2022-12-01T12:12:33;53.45;;;27.15;;
46899;SDS011;32647;49.382;7.078;2022-12-01T12:15:37;43.53;;;24.30;;
46899;SDS011;32647;49.382;7.078;2022-12-01T12:18:42;57.80;;;26.75;;
46899;SDS011;32647;49.382;7.078;2022-12-01T12:21:47;51.80;;;26.00;;
46899;SDS011;32647;49.382;7.078;2022-12-01T12:43:40;37.08;;;21.17;;
46899;SDS011;32647;49.382;7.078;2022-12-01T12:46:31;36.17;;;20.08;;
46899;SDS011;32647;49.382;7.078;2022-12-01T12:52:33;34.10;;;19.35;;
46899;SDS011;32647;49.382;7.078;2022-12-01T12:58:40;30.65;;;18.35;;
46899;SDS011;32647;49.382;7.078;2022-12-01T13:01:38;31.13;;;18.17;;
46899;SDS011;32647;49.382;7.078;2022-12-01T13:04:32;32.50;;;18.60;;
46899;SDS011;32647;49.382;7.078;2022-12-01T13:07:36;31.92;;;17.83;;
46899;SDS011;32647;49.382;7.078;2022-12-01T13:16:45;34.13;;;18.80;;
46899;SDS011;32647;49.382;7.078;2022-12-01T13:19:34;33.35;;;18.90;;
46899;SDS011;32647;49.382;7.078;2022-12-01T13:22:27;30.50;;;17.70;;
46899;SDS011;32647;49.382;7.078;2022-12-01T13:25:20;28.85;;;16.25;;
46899;SDS011;32647;49.382;7.078;2022-12-01T13:28:14;28.92;;;16.55;;
46899;SDS011;32647;49.382;7.078;2022-12-01T13:31:08;33.07;;;18.37;;
46899;SDS011;32647;49.382;7.078;2022-12-01T13:34:00;30.63;;;17.05;;
46899;SDS011;32647;49.382;7.078;2022-12-01T13:36:48;34.83;;;19.40;;
46899;SDS011;32647;49.382;7.078;2022-12-01T13:39:36;35.92;;;20.65;;
46899;SDS011;32647;49.382;7.078;2022-12-01T13:42:24;35.25;;;18.55;;
46899;SDS011;32647;49.382;7.078;2022-12-01T13:45:21;40.25;;;20.75;;
46899;SDS011;32647;49.382;7.078;2022-12-01T13:48:27;39.78;;;20.73;;
46899;SDS011;32647;49.382;7.078;2022-12-01T13:52:15;30.60;;;18.25;;
46899;SDS011;32647;49.382;7.078;2022-12-01T14:00:41;33.33;;;18.50;;
46899;SDS011;32647;49.382;7.078;2022-12-01T14:03:31;26.75;;;16.35;;
46899;SDS011;32647;49.382;7.078;2022-12-01T14:15:27;28.63;;;16.35;;
46899;SDS011;32647;49.382;7.078;2022-12-01T14:18:25;31.55;;;16.80;;
46899;SDS011;32647;49.382;7.078;2022-12-01T14:21:40;35.95;;;18.83;;
46899;SDS011;32647;49.382;7.078;2022-12-01T14:24:35;33.85;;;19.98;;
46899;SDS011;32647;49.382;7.078;2022-12-01T14:27:38;30.48;;;17.73;;
46899;SDS011;32647;49.382;7.078;2022-12-01T14:36:43;32.63;;;18.45;;
46899;SDS011;32647;49.382;7.078;2022-12-01T14:39:34;34.40;;;19.80;;
46899;SDS011;32647;49.382;7.078;2022-12-01T14:42:34;31.42;;;17.95;;
46899;SDS011;32647;49.382;7.078;2022-12-01T14:45:52;37.88;;;19.60;;
46899;SDS011;32647;49.382;7.078;2022-12-01T14:48:47;37.60;;;20.10;;
46899;SDS011;32647;49.382;7.078;2022-12-01T14:51:34;39.00;;;20.67;;
46899;SDS011;32647;49.382;7.078;2022-12-01T14:54:26;36.40;;;19.73;;
46899;SDS011;32647;49.382;7.078;2022-12-01T14:57:19;38.10;;;20.08;;
46899;SDS011;32647;49.382;7.078;2022-12-01T15:00:16;35.50;;;20.55;;
46899;SDS011;32647;49.382;7.078;2022-12-01T15:03:07;37.88;;;20.25;;
46899;SDS011;32647;49.382;7.078;2022-12-01T15:05:56;41.03;;;22.15;;
46899;SDS011;32647;49.382;7.078;2022-12-01T15:08:42;43.17;;;22.75;;
46899;SDS011;32647;49.382;7.078;2022-12-01T15:11:29;36.00;;;21.20;;
46899;SDS011;32647;49.382;7.078;2022-12-01T15:14:22;41.78;;;23.50;;
46899;SDS011;32647;49.382;7.078;2022-12-01T15:17:26;35.95;;;21.42;;
46899;SDS011;32647;49.382;7.078;2022-12-01T15:20:32;44.33;;;23.85;;
46899;SDS011;32647;49.382;7.078;2022-12-01T15:23:19;45.38;;;21.73;;
46899;SDS011;32647;49.382;7.078;2022-12-01T15:26:05;37.35;;;21.58;;
46899;SDS011;32647;49.382;7.078;2022-12-01T15:32:08;40.78;;;21.85;;
46899;SDS011;32647;49.382;7.078;2022-12-01T15:34:59;46.08;;;22.38;;
46899;SDS011;32647;49.382;7.078;2022-12-01T15:37:47;37.60;;;21.15;;
46899;SDS011;32647;49.382;7.078;2022-12-01T15:40:34;43.58;;;22.80;;
46899;SDS011;32647;49.382;7.078;2022-12-01T15:43:22;39.63;;;21.00;;
46899;SDS011;32647;49.382;7.078;2022-12-01T15:46:12;42.35;;;22.27;;
46899;SDS011;32647;49.382;7.078;2022-12-01T16:02:41;41.58;;;23.13;;
46899;SDS011;32647;49.382;7.078;2022-12-01T16:05:22;40.90;;;23.48;;
46899;SDS011;32647;49.382;7.078;2022-12-01T16:08:17;41.08;;;23.10;;
46899;SDS011;32647;49.382;7.078;2022-12-01T16:11:12;43.05;;;22.90;;
46899;SDS011;32647;49.382;7.078;2022-12-01T16:14:04;38.03;;;20.92;;
46899;SDS011;32647;49.382;7.078;2022-12-01T16:17:10;41.85;;;23.17;;
46899;SDS011;32647;49.382;7.078;2022-12-01T16:20:15;46.40;;;28.23;;
46899;SDS011;32647;49.382;7.078;2022-12-01T16:23:19;42.42;;;22.90;;
46899;SDS011;32647;49.382;7.078;2022-12-01T16:26:09;43.85;;;23.27;;
46899;SDS011;32647;49.382;7.078;2022-12-01T16:28:55;44.00;;;24.58;;
46899;SDS011;32647;49.382;7.078;2022-12-01T16:31:41;44.50;;;22.60;;
46899;SDS011;32647;49.382;7.078;2022-12-01T16:34:27;38.85;;;21.33;;
46899;SDS011;32647;49.382;7.078;2022-12-01T16:37:14;46.95;;;23.05;;
46899;SDS011;32647;49.382;7.078;2022-12-01T16:40:00;47.55;;;23.95;;
46899;SDS011;32647;49.382;7.078;2022-12-01T16:42:49;38.33;;;21.77;;
46899;SDS011;32647;49.382;7.078;2022-12-01T16:45:35;49.92;;;24.90;;
46899;SDS011;32647;49.382;7.078;2022-12-01T16:48:21;39.92;;;22.15;;
46899;SDS011;32647;49.382;7.078;2022-12-01T16:51:06;39.72;;;21.70;;
46899;SDS011;32647;49.382;7.078;2022-12-01T16:53:57;38.60;;;22.58;;
46899;SDS011;32647;49.382;7.078;2022-12-01T16:56:44;42.03;;;22.23;;
46899;SDS011;32647;49.382;7.078;2022-12-01T16:59:30;46.95;;;23.15;;
46899;SDS011;32647;49.382;7.078;2022-12-01T17:02:16;40.28;;;22.40;;
46899;SDS011;32647;49.382;7.078;2022-12-01T17:05:02;37.67;;;21.80;;
46899;SDS011;32647;49.382;7.078;2022-12-01T17:07:49;36.17;;;19.70;;
46899;SDS011;32647;49.382;7.078;2022-12-01T17:10:38;36.30;;;19.88;;
46899;SDS011;32647;49.382;7.078;2022-12-01T17:13:25;38.72;;;21.98;;
46899;SDS011;32647;49.382;7.078;2022-12-01T17:16:11;31.38;;;18.13;;
46899;SDS011;32647;49.382;7.078;2022-12-01T17:19:00;34.83;;;19.17;;
46899;SDS011;32647;49.382;7.078;2022-12-01T17:21:47;37.00;;;20.17;;
46899;SDS011;32647;49.382;7.078;2022-12-01T17:24:33;38.92;;;21.20;;
46899;SDS011;32647;49.382;7.078;2022-12-01T17:27:18;39.40;;;21.17;;
46899;SDS011;32647;49.382;7.078;2022-12-01T17:30:05;41.00;;;22.73;;
46899;SDS011;32647;49.382;7.078;2022-12-01T17:32:51;41.00;;;23.08;;
46899;SDS011;32647;49.382;7.078;2022-12-01T17:35:38;41.00;;;22.10;;
46899;SDS011;32647;49.382;7.078;2022-12-01T17:38:24;37.50;;;21.55;;
46899;SDS011;32647;49.382;7.078;2022-12-01T17:41:11;36.10;;;21.20;;
46899;SDS011;32647;49.382;7.078;2022-12-01T17:44:02;34.25;;;20.08;;
46899;SDS011;32647;49.382;7.078;2022-12-01T17:46:48;39.05;;;21.42;;
46899;SDS011;32647;49.382;7.078;2022-12-01T17:49:34;73.22;;;43.92;;
46899;SDS011;32647;49.382;7.078;2022-12-01T17:52:20;50.38;;;29.73;;
46899;SDS011;32647;49.382;7.078;2022-12-01T17:55:07;48.53;;;26.35;;
46899;SDS011;32647;49.382;7.078;2022-12-01T17:57:53;35.60;;;20.00;;
46899;SDS011;32647;49.382;7.078;2022-12-01T18:00:39;45.70;;;26.08;;
46899;SDS011;32647;49.382;7.078;2022-12-01T18:03:25;46.85;;;26.17;;
46899;SDS011;32647;49.382;7.078;2022-12-01T18:06:11;52.08;;;25.25;;
46899;SDS011;32647;49.382;7.078;2022-12-01T18:08:58;49.55;;;25.70;;
46899;SDS011;32647;49.382;7.078;2022-12-01T18:11:44;56.72;;;26.88;;
46899;SDS011;32647;49.382;7.078;2022-12-01T18:14:30;46.38;;;24.90;;
46899;SDS011;32647;49.382;7.078;2022-12-01T18:17:18;52.75;;;26.08;;
46899;SDS011;32647;49.382;7.078;2022-12-01T18:20:04;54.10;;;25.65;;
46899;SDS011;32647;49.382;7.078;2022-12-01T18:22:51;46.00;;;24.85;;
46899;SDS011;32647;49.382;7.078;2022-12-01T18:25:37;56.53;;;27.92;;
46899;SDS011;32647;49.382;7.078;2022-12-01T18:28:24;50.42;;;25.30;;
46899;SDS011;32647;49.382;7.078;2022-12-01T18:31:11;42.15;;;24.15;;
46899;SDS011;32647;49.382;7.078;2022-12-01T18:33:59;47.40;;;24.65;;
46899;SDS011;32647;49.382;7.078;2022-12-01T18:36:47;50.03;;;26.90;;
46899;SDS011;32647;49.382;7.078;2022-12-01T18:39:33;49.28;;;26.42;;
46899;SDS011;32647;49.382;7.078;2022-12-01T18:42:19;47.92;;;27.30;;
46899;SDS011;32647;49.382;7.078;2022-12-01T18:45:05;48.95;;;26.98;;
46899;SDS011;32647;49.382;7.078;2022-12-01T18:47:51;51.90;;;28.00;;